createdAt,value
2023-05-10T05:48:55.118Z,33.48
2023-05-10T05:51:23.101Z,32.81
2023-05-10T05:53:51.101Z,32.11
2023-05-10T05:56:25.331Z,31.88
2023-05-10T05:58:53.630Z,32.50
2023-05-10T06:01:22.194Z,31.92
2023-05-10T06:03:53.190Z,31.82
2023-05-10T06:06:21.756Z,32.18
2023-05-10T06:08:49.683Z,31.36
2023-05-10T06:11:17.654Z,31.87
2023-05-10T06:13:45.732Z,31.40
2023-05-10T06:16:14.463Z,30.55
2023-05-10T06:18:42.468Z,30.89
2023-05-10T06:21:10.457Z,30.94
2023-05-10T06:23:38.482Z,29.83
2023-05-10T06:26:06.455Z,30.20
2023-05-10T06:28:34.786Z,30.03
2023-05-10T06:31:03.024Z,29.77
2023-05-10T06:33:31.168Z,30.35
2023-05-10T06:35:59.148Z,30.00
2023-05-10T06:38:27.532Z,30.42
2023-05-10T06:40:55.513Z,30.56
2023-05-10T06:43:23.471Z,30.11
2023-05-10T06:45:51.423Z,29.72
2023-05-10T06:48:19.427Z,29.10
2023-05-10T06:50:47.401Z,29.64
2023-05-10T06:53:15.414Z,29.73
2023-05-10T06:55:43.334Z,29.92
2023-05-10T06:58:11.556Z,29.26
2023-05-10T07:00:41.710Z,29.84
2023-05-10T07:03:10.904Z,29.19
2023-05-10T07:05:39.014Z,28.64
2023-05-10T07:08:07.094Z,28.86
2023-05-10T07:10:35.172Z,29.02
2023-05-10T07:13:03.392Z,29.10
2023-05-10T07:15:31.603Z,29.07
2023-05-10T07:17:59.722Z,28.93
2023-05-10T07:20:27.976Z,28.90
2023-05-10T07:22:56.089Z,29.06
2023-05-10T07:25:24.078Z,29.01
2023-05-10T07:27:52.122Z,29.13
2023-05-10T07:30:20.771Z,28.43
2023-05-10T07:32:48.919Z,28.40
2023-05-10T07:35:17.295Z,28.44
2023-05-10T07:37:46.748Z,28.69
2023-05-10T07:40:14.774Z,28.68
2023-05-10T07:42:42.698Z,28.46
2023-05-10T07:45:10.718Z,28.52
2023-05-10T07:47:38.743Z,29.12
2023-05-10T07:50:07.933Z,28.57
2023-05-10T07:52:35.921Z,28.64
2023-05-10T07:55:04.050Z,28.52
2023-05-10T07:57:32.133Z,27.69
2023-05-10T08:00:00.206Z,28.20
2023-05-10T08:02:28.320Z,27.72
2023-05-10T08:04:57.035Z,27.45
2023-05-10T08:07:25.643Z,27.86
2023-05-10T08:09:53.580Z,27.76
2023-05-10T08:12:21.764Z,27.05
2023-05-10T08:14:49.759Z,27.55
2023-05-10T08:17:19.781Z,27.10
2023-05-10T08:19:48.423Z,27.56
2023-05-10T08:22:16.793Z,27.07
2023-05-10T08:24:44.721Z,27.23
2023-05-10T08:27:12.645Z,26.54
2023-05-10T08:29:49.615Z,26.27
2023-05-10T08:32:18.892Z,25.28
2023-05-10T08:34:47.016Z,25.51
2023-05-10T08:37:15.041Z,25.90
2023-05-10T08:39:43.147Z,26.51
2023-05-10T08:42:11.482Z,26.67
2023-05-10T08:44:39.728Z,26.20
2023-05-10T08:47:08.471Z,25.95
2023-05-10T08:49:36.615Z,24.91
2023-05-10T08:52:05.421Z,25.08
2023-05-10T08:54:34.382Z,25.14
2023-05-10T08:57:02.534Z,24.97
2023-05-10T08:59:30.512Z,24.92
2023-05-10T09:02:01.684Z,25.00
2023-05-10T09:04:29.762Z,24.78
2023-05-10T09:06:58.059Z,24.62
2023-05-10T09:09:26.220Z,24.79
2023-05-10T09:11:54.551Z,24.64
2023-05-10T09:14:22.614Z,24.69
2023-05-10T09:16:50.748Z,24.63
2023-05-10T09:19:18.745Z,24.57
2023-05-10T09:21:46.819Z,24.16
2023-05-10T09:24:14.801Z,24.49
2023-05-10T09:26:52.566Z,24.09
2023-05-10T09:29:20.621Z,24.96
2023-05-10T09:31:52.305Z,24.29
2023-05-10T09:34:22.278Z,24.34
2023-05-10T09:37:06.980Z,24.36
2023-05-10T09:39:36.037Z,24.42
2023-05-10T09:42:06.380Z,24.15
2023-05-10T09:44:34.703Z,24.36
2023-05-10T09:47:03.130Z,23.56
2023-05-10T09:49:31.504Z,23.89
2023-05-10T09:52:04.794Z,23.70
2023-05-10T09:54:33.652Z,24.07
2023-05-10T09:57:02.084Z,24.21
2023-05-10T09:59:30.317Z,23.94
2023-05-10T10:01:59.310Z,24.19
2023-05-10T10:04:27.732Z,24.12
2023-05-10T10:07:05.619Z,23.54
2023-05-10T10:09:34.727Z,23.92
2023-05-10T10:12:03.202Z,23.84
2023-05-10T10:14:31.289Z,24.23
2023-05-10T10:17:08.341Z,24.13
2023-05-10T10:19:37.362Z,24.03
2023-05-10T10:22:06.996Z,24.24
2023-05-10T10:24:35.169Z,23.92
2023-05-10T10:27:29.980Z,24.49
2023-05-10T10:30:27.566Z,24.15
2023-05-10T10:33:16.491Z,23.98
2023-05-10T10:35:48.718Z,24.38
2023-05-10T10:38:17.614Z,24.52
2023-05-10T10:40:45.652Z,24.68
2023-05-10T10:43:43.066Z,24.60
2023-05-10T10:46:15.335Z,24.99
2023-05-10T10:48:52.682Z,24.68
2023-05-10T10:51:21.128Z,24.01
2023-05-10T10:53:49.181Z,23.47
2023-05-10T10:56:17.129Z,23.90
2023-05-10T10:58:52.295Z,24.35
2023-05-10T11:01:20.711Z,24.59
2023-05-10T11:04:01.217Z,24.32
2023-05-10T11:06:36.214Z,24.55
2023-05-10T11:09:12.544Z,24.97
2023-05-10T11:11:51.109Z,24.30
2023-05-10T11:14:21.241Z,24.00
2023-05-10T11:16:49.438Z,23.96
2023-05-10T11:19:18.342Z,23.90
2023-05-10T11:21:50.181Z,24.12
2023-05-10T11:24:20.274Z,24.56
2023-05-10T11:26:50.559Z,24.33
2023-05-10T11:29:18.720Z,24.80
2023-05-10T11:31:48.054Z,24.80
2023-05-10T11:34:31.375Z,24.59
2023-05-10T11:37:00.870Z,23.70
2023-05-10T11:39:32.779Z,24.01
2023-05-10T11:42:01.237Z,23.73
2023-05-10T11:44:33.094Z,23.64
2023-05-10T11:47:04.586Z,23.16
2023-05-10T11:49:32.569Z,23.47
2023-05-10T11:52:08.412Z,23.70
2023-05-10T11:54:36.603Z,23.65
2023-05-10T11:57:07.812Z,23.78
2023-05-10T11:59:35.807Z,23.89
2023-05-10T12:02:04.574Z,23.88
2023-05-10T12:04:32.671Z,24.11
2023-05-10T12:07:00.679Z,24.16
2023-05-10T12:09:42.710Z,23.76
2023-05-10T12:12:16.724Z,23.62
2023-05-10T12:14:44.857Z,23.31
2023-05-10T12:17:14.139Z,23.30
2023-05-10T12:19:42.167Z,22.95
2023-05-10T12:22:10.163Z,22.71
2023-05-10T12:24:39.335Z,22.94
2023-05-10T12:29:58.539Z,22.50
2023-05-10T12:32:40.579Z,22.65
2023-05-10T12:35:09.296Z,22.83
2023-05-10T12:37:40.047Z,22.83
2023-05-10T12:40:09.266Z,22.93
2023-05-10T12:42:37.658Z,23.45
2023-05-10T12:45:06.614Z,23.28
2023-05-10T12:47:34.495Z,23.01
2023-05-10T12:50:03.707Z,22.61
2023-05-10T12:52:33.117Z,23.02
2023-05-10T12:55:01.475Z,23.09
2023-05-10T12:57:29.709Z,23.20
2023-05-10T12:59:57.659Z,22.62
2023-05-10T13:02:25.729Z,22.38
2023-05-10T13:04:53.994Z,22.61
2023-05-10T13:07:22.086Z,22.96
2023-05-10T13:09:49.989Z,22.77
2023-05-10T13:12:17.890Z,21.85
2023-05-10T13:14:46.151Z,22.54
2023-05-10T13:17:14.197Z,23.28
2023-05-10T13:19:42.275Z,23.37
2023-05-10T13:22:10.235Z,23.41
2023-05-10T13:24:38.216Z,23.39
2023-05-10T13:27:06.350Z,22.79
2023-05-10T13:29:34.248Z,23.10
2023-05-10T13:32:02.293Z,22.49
2023-05-10T13:34:30.678Z,22.82
2023-05-10T13:36:58.785Z,23.15
2023-05-10T13:39:26.866Z,22.51
2023-05-10T13:41:55.758Z,22.95
2023-05-10T13:44:24.595Z,23.63
2023-05-10T13:46:52.567Z,23.94
2023-05-10T13:49:20.560Z,23.47
2023-05-10T13:51:48.526Z,23.45
2023-05-10T13:54:18.731Z,23.64
2023-05-10T13:56:48.427Z,23.28
2023-05-10T13:59:16.609Z,23.29
2023-05-10T14:01:44.699Z,23.67
2023-05-10T14:04:12.723Z,23.76
2023-05-10T14:06:40.852Z,23.68
2023-05-10T14:09:08.891Z,24.18
2023-05-10T14:11:36.923Z,24.88
2023-05-10T14:14:04.861Z,24.81
2023-05-10T14:16:32.821Z,24.39
2023-05-10T14:19:00.863Z,23.31
2023-05-10T14:21:30.858Z,24.00
2023-05-10T14:23:58.894Z,24.28
2023-05-10T14:26:27.400Z,24.25
2023-05-10T14:28:55.422Z,24.32
2023-05-10T14:31:25.726Z,24.36
2023-05-10T14:33:54.306Z,24.17
2023-05-10T14:36:22.263Z,24.06
2023-05-10T14:38:50.296Z,24.06
2023-05-10T14:41:18.729Z,24.49
2023-05-10T14:43:47.093Z,24.93
2023-05-10T14:46:15.126Z,25.02
2023-05-10T14:48:43.205Z,25.09
2023-05-10T14:51:11.404Z,25.53
2023-05-10T14:53:39.445Z,25.73
2023-05-10T14:56:08.361Z,24.86
2023-05-10T14:58:36.850Z,24.97
2023-05-10T15:01:05.188Z,24.93
2023-05-10T15:03:33.932Z,25.10
2023-05-10T15:06:02.416Z,25.18
2023-05-10T15:08:30.750Z,25.50
2023-05-10T15:10:59.773Z,25.47
2023-05-10T15:13:27.795Z,25.47
2023-05-10T15:15:55.875Z,25.58
2023-05-10T15:18:26.702Z,25.58
2023-05-10T15:20:56.327Z,25.48
2023-05-10T15:23:24.412Z,25.69
2023-05-10T15:25:56.873Z,25.60
2023-05-10T15:28:25.384Z,25.82
2023-05-10T15:30:53.488Z,25.96
2023-05-10T15:33:21.732Z,25.51
2023-05-10T15:35:49.756Z,25.20
2023-05-10T15:38:17.732Z,24.89
2023-05-10T15:40:45.675Z,25.13
2023-05-10T15:43:13.735Z,25.39
2023-05-10T15:45:41.755Z,25.73
2023-05-10T15:48:09.743Z,25.70
2023-05-10T15:50:37.802Z,25.42
2023-05-10T15:53:05.821Z,25.71
2023-05-10T15:55:35.170Z,26.06
2023-05-10T15:58:03.180Z,26.13
2023-05-10T16:00:31.409Z,26.18
2023-05-10T16:03:03.531Z,26.09
2023-05-10T16:05:34.323Z,26.18
2023-05-10T16:08:02.512Z,26.31
2023-05-10T16:10:33.713Z,26.37
2023-05-10T16:13:03.892Z,26.50
2023-05-10T16:15:31.861Z,26.25
2023-05-10T16:17:59.966Z,26.42
2023-05-10T16:20:28.364Z,26.82
2023-05-10T16:22:56.337Z,26.77
2023-05-10T16:25:24.281Z,26.73
2023-05-10T16:27:52.419Z,26.92
2023-05-10T16:30:21.759Z,27.00
2023-05-10T16:32:51.981Z,27.04
2023-05-10T16:35:20.938Z,27.21
2023-05-10T16:37:48.942Z,27.21
2023-05-10T16:40:17.412Z,27.36
2023-05-10T16:42:45.592Z,27.50
2023-05-10T16:45:13.591Z,27.44
2023-05-10T16:47:41.773Z,27.37
2023-05-10T16:50:10.002Z,27.49
2023-05-10T16:52:37.954Z,27.17
2023-05-10T16:55:06.652Z,27.65
2023-05-10T16:57:35.350Z,28.12
2023-05-10T17:00:04.997Z,28.56
2023-05-10T17:02:33.228Z,28.89
2023-05-10T17:05:03.437Z,28.80
2023-05-10T17:07:31.604Z,29.30
2023-05-10T17:09:59.799Z,29.43
2023-05-10T17:12:28.146Z,29.42
2023-05-10T17:14:58.724Z,29.62
2023-05-10T17:17:28.057Z,29.47
2023-05-10T17:19:56.219Z,29.43
2023-05-10T17:22:24.995Z,29.45
2023-05-10T17:24:53.069Z,29.43
2023-05-10T17:27:21.198Z,29.64
2023-05-10T17:29:49.170Z,29.69
2023-05-10T17:32:17.127Z,29.89
2023-05-10T17:34:45.669Z,30.04
2023-05-10T17:37:13.950Z,30.37
2023-05-10T17:39:42.260Z,30.61
2023-05-10T17:42:10.828Z,30.58
2023-05-10T17:44:39.116Z,30.54
2023-05-10T17:47:07.292Z,30.56
2023-05-10T17:49:35.426Z,30.74
2023-05-10T17:52:04.839Z,30.95
2023-05-10T17:54:34.718Z,31.09
2023-05-10T17:57:03.901Z,31.00
2023-05-10T17:59:32.258Z,31.04
2023-05-10T18:02:01.735Z,31.18
2023-05-10T18:04:29.772Z,31.32
2023-05-10T18:07:01.501Z,31.36
2023-05-10T18:09:29.877Z,31.52
2023-05-10T18:11:57.916Z,31.70
2023-05-10T18:14:39.776Z,31.76
2023-05-10T18:17:10.264Z,32.07
2023-05-10T18:19:38.571Z,32.14
2023-05-10T18:22:09.853Z,32.24
2023-05-10T18:24:40.061Z,32.50
2023-05-10T18:27:09.050Z,32.78
2023-05-10T18:29:37.827Z,32.84
2023-05-10T18:32:06.608Z,33.16
2023-05-10T18:34:34.951Z,33.13
2023-05-10T18:37:07.928Z,33.23
2023-05-10T18:39:39.132Z,33.32
2023-05-10T18:42:07.574Z,33.33
2023-05-10T18:44:35.687Z,33.19
2023-05-10T18:47:03.687Z,33.54
2023-05-10T18:49:32.314Z,33.97
2023-05-10T18:52:00.598Z,34.02
2023-05-10T18:54:29.166Z,34.04
2023-05-10T18:56:58.820Z,34.44
2023-05-10T18:59:28.102Z,34.43
2023-05-10T19:01:57.495Z,34.53
2023-05-10T19:04:26.190Z,34.80
2023-05-10T19:06:56.091Z,34.80
2023-05-10T19:09:24.323Z,34.94
2023-05-10T19:11:52.370Z,35.15
2023-05-10T19:14:20.825Z,34.93
2023-05-10T19:16:48.762Z,35.54
2023-05-10T19:19:17.987Z,35.34
2023-05-10T19:21:46.320Z,36.50
2023-05-10T19:24:14.822Z,36.04
2023-05-10T19:26:43.132Z,36.21
2023-05-10T19:29:13.512Z,36.78
2023-05-10T19:31:41.714Z,36.92
2023-05-10T19:34:09.667Z,38.03
2023-05-10T19:36:37.744Z,37.99
2023-05-10T19:39:05.918Z,37.74
2023-05-10T19:41:34.066Z,37.68
2023-05-10T19:44:02.172Z,38.36
2023-05-10T19:46:31.551Z,38.70
2023-05-10T19:48:59.755Z,38.39
2023-05-10T19:51:27.660Z,38.76
2023-05-10T19:53:56.026Z,38.92
2023-05-10T19:56:23.976Z,38.79
2023-05-10T19:58:52.043Z,38.78
2023-05-10T20:01:20.146Z,38.99
2023-05-10T20:03:48.285Z,39.01
2023-05-10T20:06:16.370Z,38.85
2023-05-10T20:08:44.514Z,38.89
2023-05-10T20:11:12.551Z,38.92
2023-05-10T20:13:40.475Z,39.17
2023-05-10T20:16:09.700Z,39.07
2023-05-10T20:18:38.319Z,38.80
2023-05-10T20:21:06.625Z,39.18
2023-05-10T20:23:34.715Z,39.34
2023-05-10T20:26:02.857Z,39.25
2023-05-10T20:28:31.118Z,39.53
2023-05-10T20:31:00.626Z,39.47
2023-05-10T20:33:29.157Z,39.38
2023-05-10T20:35:57.559Z,39.42
2023-05-10T20:38:25.608Z,39.60
2023-05-10T20:40:53.596Z,39.50
2023-05-10T20:43:21.859Z,39.65
2023-05-10T20:45:50.149Z,39.62
2023-05-10T20:48:19.742Z,39.47
2023-05-10T20:50:47.910Z,39.55
2023-05-10T20:53:16.018Z,39.52
2023-05-10T20:55:44.623Z,39.80
2023-05-10T20:58:12.697Z,39.73
2023-05-10T21:00:40.715Z,40.00
2023-05-10T21:03:09.035Z,40.17
2023-05-10T21:05:37.276Z,40.11
2023-05-10T21:08:05.960Z,40.31
2023-05-10T21:10:34.093Z,40.35
2023-05-10T21:13:02.096Z,40.25
2023-05-10T21:15:30.568Z,40.20
2023-05-10T21:17:58.563Z,40.10
2023-05-10T21:20:26.858Z,39.97
2023-05-10T21:22:54.881Z,40.25
2023-05-10T21:25:23.418Z,40.18
2023-05-10T21:27:51.688Z,40.26
2023-05-10T21:30:20.287Z,40.25
2023-05-10T21:32:48.436Z,40.32
2023-05-10T21:35:30.808Z,40.42
2023-05-10T21:37:58.999Z,40.58
2023-05-10T21:40:26.970Z,40.64
2023-05-10T21:42:55.151Z,40.62
2023-05-10T21:45:23.307Z,40.78
2023-05-10T21:47:51.344Z,40.85
2023-05-10T21:50:19.512Z,40.91
2023-05-10T21:52:47.846Z,40.96
2023-05-10T21:55:15.821Z,41.23
2023-05-10T21:57:44.920Z,41.39
2023-05-10T22:00:13.819Z,41.44
2023-05-10T22:02:41.897Z,41.45
2023-05-10T22:05:10.081Z,41.70
2023-05-10T22:07:38.065Z,41.77
2023-05-10T22:10:08.470Z,41.80
2023-05-10T22:12:36.539Z,41.91
2023-05-10T22:17:38.352Z,41.95
2023-05-10T22:20:09.555Z,41.92
2023-05-10T22:22:37.671Z,41.94
2023-05-10T22:25:07.562Z,42.30
2023-05-10T22:27:35.681Z,42.33
2023-05-10T22:30:04.203Z,42.25
2023-05-10T22:32:37.142Z,42.24
2023-05-10T22:35:07.282Z,42.29
2023-05-10T22:37:35.270Z,42.25
2023-05-10T22:40:14.199Z,42.31
2023-05-10T22:42:42.260Z,42.26
2023-05-10T22:45:10.694Z,42.19
2023-05-10T22:47:38.809Z,42.26
2023-05-10T22:50:07.345Z,42.36
2023-05-10T22:52:35.650Z,42.44
2023-05-10T22:55:03.725Z,42.71
2023-05-10T22:57:31.649Z,42.69
2023-05-10T22:59:59.759Z,42.87
2023-05-10T23:02:27.961Z,42.95
2023-05-10T23:05:02.551Z,42.85
2023-05-10T23:07:30.732Z,43.29
2023-05-10T23:09:58.792Z,43.18
2023-05-10T23:12:26.789Z,43.40
2023-05-10T23:14:54.976Z,43.47
2023-05-10T23:17:22.932Z,43.53
2023-05-10T23:19:51.396Z,43.78
2023-05-10T23:22:21.047Z,43.87
2023-05-10T23:24:48.968Z,43.61
2023-05-10T23:27:16.973Z,43.86
2023-05-10T23:29:45.128Z,44.08
2023-05-10T23:32:13.187Z,44.34
2023-05-10T23:34:41.316Z,44.54
2023-05-10T23:37:09.318Z,44.57
2023-05-10T23:39:37.401Z,44.66
2023-05-10T23:42:05.745Z,44.83
2023-05-10T23:44:33.679Z,44.69
2023-05-10T23:47:01.681Z,44.58
2023-05-10T23:49:29.571Z,45.07
2023-05-10T23:51:57.489Z,44.84
2023-05-10T23:54:25.626Z,44.91
2023-05-10T23:56:53.602Z,45.27
2023-05-10T23:59:21.602Z,45.24
